createdAt,value
2019-03-27T00:01:26.896Z,6.43
2019-03-27T00:03:52.676Z,6.40
2019-03-27T00:06:18.467Z,6.42
2019-03-27T00:08:44.254Z,6.44
2019-03-27T00:11:10.047Z,6.37
2019-03-27T00:13:35.824Z,6.45
2019-03-27T00:16:01.612Z,6.43
2019-03-27T00:18:27.396Z,6.47
2019-03-27T00:20:53.321Z,6.37
2019-03-27T00:23:19.111Z,6.39
2019-03-27T00:25:45.015Z,6.40
2019-03-27T00:28:10.798Z,6.40
2019-03-27T00:30:36.597Z,6.38
2019-03-27T00:33:02.373Z,6.40
2019-03-27T00:35:28.160Z,6.36
2019-03-27T00:37:53.940Z,6.33
2019-03-27T00:40:19.723Z,6.34
2019-03-27T00:42:45.520Z,6.40
2019-03-27T00:45:11.420Z,6.35
2019-03-27T00:47:37.198Z,6.36
2019-03-27T00:50:07.376Z,6.47
2019-03-27T00:52:33.170Z,6.41
2019-03-27T00:54:58.954Z,6.34
2019-03-27T00:57:24.749Z,6.36
2019-03-27T00:59:50.521Z,6.32
2019-03-27T01:02:16.374Z,6.35
2019-03-27T01:04:42.091Z,6.34
2019-03-27T01:07:07.886Z,6.37
2019-03-27T01:09:33.668Z,6.41
2019-03-27T01:11:59.659Z,6.40
2019-03-27T01:14:25.444Z,6.35
2019-03-27T01:16:51.240Z,6.34
2019-03-27T01:19:17.018Z,6.36
2019-03-27T01:21:42.808Z,6.36
2019-03-27T01:24:08.599Z,6.41
2019-03-27T01:26:34.395Z,6.34
2019-03-27T01:29:00.173Z,6.36
2019-03-27T01:31:25.963Z,6.38
2019-03-27T01:33:51.741Z,6.40
2019-03-27T01:36:17.536Z,6.41
2019-03-27T01:38:43.320Z,6.43
2019-03-27T01:41:09.103Z,6.49
2019-03-27T01:43:34.895Z,6.43
2019-03-27T01:46:00.677Z,6.47
2019-03-27T01:48:26.464Z,6.43
2019-03-27T01:50:52.259Z,6.51
2019-03-27T01:53:18.060Z,6.51
2019-03-27T01:55:43.834Z,6.51
2019-03-27T01:58:09.632Z,6.52
2019-03-27T02:00:35.413Z,6.51
2019-03-27T02:03:01.203Z,6.50
2019-03-27T02:05:26.989Z,6.47
2019-03-27T02:07:52.797Z,6.48
2019-03-27T02:10:18.571Z,6.48
2019-03-27T02:12:44.361Z,6.44
2019-03-27T02:15:10.455Z,6.43
2019-03-27T02:17:36.252Z,6.43
2019-03-27T02:20:03.835Z,6.41
2019-03-27T02:22:29.650Z,6.45
2019-03-27T02:24:55.424Z,6.48
2019-03-27T02:27:21.211Z,6.47
2019-03-27T02:29:46.992Z,6.52
2019-03-27T02:32:12.785Z,6.42
2019-03-27T02:34:38.560Z,6.45
2019-03-27T02:37:04.363Z,6.49
2019-03-27T02:39:30.138Z,6.45
2019-03-27T02:41:55.937Z,6.44
2019-03-27T02:44:21.705Z,6.40
2019-03-27T02:46:47.475Z,6.42
2019-03-27T02:49:13.269Z,6.39
2019-03-27T02:51:39.049Z,6.43
2019-03-27T02:54:04.841Z,6.42
2019-03-27T02:56:30.619Z,6.49
2019-03-27T02:58:56.416Z,6.46
2019-03-27T03:01:22.188Z,6.40
2019-03-27T03:03:47.980Z,6.42
2019-03-27T03:06:13.759Z,6.33
2019-03-27T03:08:39.547Z,6.38
2019-03-27T03:11:05.325Z,6.34
2019-03-27T03:13:31.116Z,6.30
2019-03-27T03:15:56.899Z,6.36
2019-03-27T03:18:22.682Z,6.32
2019-03-27T03:20:48.455Z,6.26
2019-03-27T03:23:14.267Z,6.31
2019-03-27T03:25:40.048Z,6.38
2019-03-27T03:28:05.847Z,6.31
2019-03-27T03:30:31.633Z,6.29
2019-03-27T03:32:57.446Z,6.27
2019-03-27T03:35:23.222Z,6.27
2019-03-27T03:37:49.006Z,6.24
2019-03-27T03:40:15.194Z,6.32
2019-03-27T03:42:41.073Z,6.28
2019-03-27T03:45:06.969Z,6.26
2019-03-27T03:47:32.750Z,6.25
2019-03-27T03:49:58.553Z,6.29
2019-03-27T03:52:24.338Z,6.31
2019-03-27T03:54:51.523Z,6.23
2019-03-27T03:57:18.210Z,6.15
2019-03-27T03:59:44.107Z,6.25
2019-03-27T04:02:10.991Z,6.21
2019-03-27T04:04:38.688Z,6.17
2019-03-27T04:07:04.476Z,6.17
2019-03-27T04:09:30.263Z,6.18
2019-03-27T04:11:56.047Z,6.15
2019-03-27T04:14:21.849Z,6.15
2019-03-27T04:16:47.635Z,6.08
2019-03-27T04:19:13.431Z,6.14
2019-03-27T04:21:39.226Z,6.14
2019-03-27T04:24:05.043Z,6.12
2019-03-27T04:26:33.525Z,6.09
2019-03-27T04:28:58.515Z,6.06
2019-03-27T04:31:24.322Z,6.08
2019-03-27T04:33:50.108Z,6.10
2019-03-27T04:36:15.905Z,6.13
2019-03-27T04:38:41.696Z,6.10
2019-03-27T04:41:07.462Z,6.17
2019-03-27T04:43:33.244Z,6.15
2019-03-27T04:45:59.035Z,6.17
2019-03-27T04:48:24.812Z,6.14
2019-03-27T04:50:50.603Z,6.22
2019-03-27T04:53:16.394Z,6.04
2019-03-27T04:55:42.178Z,6.19
2019-03-27T04:58:07.967Z,6.14
2019-03-27T05:00:33.758Z,6.14
2019-03-27T05:02:59.538Z,6.15
2019-03-27T05:05:25.327Z,6.11
2019-03-27T05:07:51.114Z,6.12
2019-03-27T05:10:16.903Z,6.14
2019-03-27T05:12:42.676Z,6.12
2019-03-27T05:15:08.550Z,6.17
2019-03-27T05:17:45.210Z,6.11
2019-03-27T05:20:04.827Z,6.14
2019-03-27T05:22:30.644Z,6.18
2019-03-27T05:24:56.427Z,6.21
2019-03-27T05:27:22.227Z,6.22
2019-03-27T05:29:48.002Z,6.28
2019-03-27T05:32:13.789Z,6.25
2019-03-27T05:34:39.574Z,6.25
2019-03-27T05:37:05.378Z,6.27
2019-03-27T05:39:31.150Z,6.30
2019-03-27T05:41:56.947Z,6.28
2019-03-27T05:44:22.729Z,6.29
2019-03-27T05:46:48.518Z,6.35
2019-03-27T05:49:14.295Z,6.36
2019-03-27T05:51:40.083Z,6.36
2019-03-27T05:54:05.868Z,6.40
2019-03-27T05:56:31.663Z,6.40
2019-03-27T05:58:57.446Z,6.47
2019-03-27T06:01:23.251Z,6.48
2019-03-27T06:03:49.030Z,6.49
2019-03-27T06:06:14.850Z,6.53
2019-03-27T06:08:40.628Z,6.57
2019-03-27T06:11:06.415Z,6.62
2019-03-27T06:13:32.214Z,6.60
2019-03-27T06:15:57.992Z,6.59
2019-03-27T06:18:23.788Z,6.69
2019-03-27T06:20:49.573Z,6.69
2019-03-27T06:23:15.375Z,6.73
2019-03-27T06:25:41.151Z,6.70
2019-03-27T06:28:06.948Z,6.72
2019-03-27T06:30:32.724Z,6.73
2019-03-27T06:32:58.519Z,6.74
2019-03-27T06:35:24.307Z,6.84
2019-03-27T06:37:50.109Z,6.84
2019-03-27T06:40:15.888Z,6.86
2019-03-27T06:42:41.677Z,6.87
2019-03-27T06:45:08.102Z,6.91
2019-03-27T06:47:33.861Z,6.93
2019-03-27T06:49:59.637Z,6.96
2019-03-27T06:52:25.431Z,6.95
2019-03-27T06:54:51.212Z,7.02
2019-03-27T06:57:17.006Z,7.03
2019-03-27T06:59:42.787Z,7.06
2019-03-27T07:02:08.670Z,7.16
2019-03-27T07:04:34.486Z,7.25
2019-03-27T07:07:00.260Z,7.25
2019-03-27T07:09:26.057Z,7.31
2019-03-27T07:11:51.839Z,7.44
2019-03-27T07:14:17.631Z,7.49
2019-03-27T07:16:43.408Z,7.55
2019-03-27T07:19:09.210Z,7.74
2019-03-27T07:21:34.994Z,8.03
2019-03-27T07:24:00.805Z,8.03
2019-03-27T07:26:26.581Z,8.03
2019-03-27T07:28:52.380Z,7.90
2019-03-27T07:31:18.154Z,7.72
2019-03-27T07:33:43.958Z,7.64
2019-03-27T07:36:09.740Z,7.62
2019-03-27T07:38:35.529Z,7.50
2019-03-27T07:41:01.320Z,7.52
2019-03-27T07:43:27.119Z,7.39
2019-03-27T07:45:52.904Z,7.53
2019-03-27T07:48:18.685Z,7.57
2019-03-27T07:50:44.476Z,7.66
2019-03-27T07:53:10.266Z,7.74
2019-03-27T07:55:36.093Z,7.74
2019-03-27T07:58:01.867Z,7.62
2019-03-27T08:00:27.667Z,7.60
2019-03-27T08:02:53.454Z,7.52
2019-03-27T08:05:19.269Z,7.59
2019-03-27T08:07:45.036Z,7.67
2019-03-27T08:10:10.934Z,7.66
2019-03-27T08:12:36.715Z,7.79
2019-03-27T08:15:06.013Z,7.91
2019-03-27T08:17:32.103Z,8.07
2019-03-27T08:19:57.910Z,8.07
2019-03-27T08:22:23.708Z,8.19
2019-03-27T08:24:49.495Z,8.27
2019-03-27T08:27:15.293Z,8.33
2019-03-27T08:29:41.110Z,8.32
2019-03-27T08:32:06.887Z,8.35
2019-03-27T08:34:32.699Z,8.36
2019-03-27T08:36:58.489Z,8.33
2019-03-27T08:39:24.266Z,8.23
2019-03-27T08:41:50.064Z,8.07
2019-03-27T08:44:15.841Z,8.03
2019-03-27T08:46:41.643Z,8.10
2019-03-27T08:49:20.796Z,8.24
2019-03-27T08:51:35.114Z,8.09
2019-03-27T08:54:00.905Z,8.12
2019-03-27T08:56:26.710Z,8.24
2019-03-27T08:58:52.592Z,8.20
2019-03-27T09:01:18.491Z,8.35
2019-03-27T09:03:44.264Z,8.36
2019-03-27T09:06:10.051Z,8.31
2019-03-27T09:08:35.836Z,8.40
2019-03-27T09:11:04.479Z,8.42
2019-03-27T09:13:29.312Z,8.29
2019-03-27T09:15:55.102Z,8.29
2019-03-27T09:18:20.956Z,8.27
2019-03-27T09:20:46.810Z,8.27
2019-03-27T09:23:12.603Z,8.29
2019-03-27T09:25:38.398Z,8.37
2019-03-27T09:28:04.298Z,8.39
2019-03-27T09:30:30.197Z,8.39
2019-03-27T09:32:55.988Z,8.41
2019-03-27T09:35:21.776Z,8.43
2019-03-27T09:37:47.569Z,8.41
2019-03-27T09:40:15.059Z,8.59
2019-03-27T09:42:40.867Z,8.60
2019-03-27T09:45:07.645Z,8.56
2019-03-27T09:47:34.785Z,8.39
2019-03-27T09:50:00.692Z,8.41
2019-03-27T09:52:26.491Z,8.41
2019-03-27T09:54:52.268Z,8.42
2019-03-27T09:57:18.072Z,8.54
2019-03-27T09:59:43.851Z,8.64
2019-03-27T10:02:09.652Z,8.82
2019-03-27T10:04:35.437Z,8.78
2019-03-27T10:07:01.318Z,8.72
2019-03-27T10:09:27.123Z,8.58
2019-03-27T10:11:52.911Z,8.67
2019-03-27T10:14:18.702Z,8.63
2019-03-27T10:16:44.483Z,8.61
2019-03-27T10:19:10.280Z,8.66
2019-03-27T10:21:36.058Z,8.71
2019-03-27T10:24:01.871Z,8.68
2019-03-27T10:26:27.652Z,8.81
2019-03-27T10:28:53.455Z,8.85
2019-03-27T10:31:19.468Z,8.64
2019-03-27T10:33:45.277Z,8.71
2019-03-27T10:36:11.061Z,8.59
2019-03-27T10:38:36.860Z,8.64
2019-03-27T10:41:02.881Z,8.68
2019-03-27T10:43:28.693Z,8.81
2019-03-27T10:45:54.466Z,8.81
2019-03-27T10:48:20.267Z,8.91
2019-03-27T10:50:46.110Z,8.78
2019-03-27T10:53:11.895Z,8.84
2019-03-27T10:55:37.997Z,8.78
2019-03-27T10:58:03.849Z,8.92
2019-03-27T11:00:29.637Z,8.92
2019-03-27T11:02:55.415Z,8.83
2019-03-27T11:05:21.218Z,8.98
2019-03-27T11:07:47.057Z,9.06
2019-03-27T11:10:12.936Z,8.90
2019-03-27T11:12:38.767Z,8.96
2019-03-27T11:15:08.046Z,8.83
2019-03-27T11:17:33.837Z,8.96
2019-03-27T11:19:59.636Z,8.96
2019-03-27T11:22:25.427Z,8.87
2019-03-27T11:24:51.230Z,8.98
2019-03-27T11:27:17.018Z,9.00
2019-03-27T11:29:42.813Z,9.00
2019-03-27T11:32:08.603Z,8.97
2019-03-27T11:34:34.391Z,8.81
2019-03-27T11:37:00.179Z,8.78
2019-03-27T11:39:25.963Z,8.85
2019-03-27T11:41:51.737Z,8.88
2019-03-27T11:44:17.535Z,8.94
2019-03-27T11:46:43.320Z,9.06
2019-03-27T11:49:09.099Z,9.06
2019-03-27T11:51:34.912Z,9.04
2019-03-27T11:54:00.714Z,9.14
2019-03-27T11:56:26.470Z,8.99
2019-03-27T11:58:52.253Z,8.97
2019-03-27T12:01:18.059Z,8.83
2019-03-27T12:03:43.818Z,9.00
2019-03-27T12:06:09.624Z,9.13
2019-03-27T12:08:35.405Z,8.92
2019-03-27T12:11:01.200Z,8.74
2019-03-27T12:13:27.002Z,8.71
2019-03-27T12:15:52.803Z,8.71
2019-03-27T12:18:18.581Z,8.82
2019-03-27T12:20:57.766Z,8.83
2019-03-27T12:23:12.384Z,8.85
2019-03-27T12:25:39.002Z,8.79
2019-03-27T12:28:04.796Z,8.79
2019-03-27T12:30:30.573Z,8.70
2019-03-27T12:32:56.383Z,8.68
2019-03-27T12:35:22.159Z,8.77
2019-03-27T12:37:47.953Z,8.84
2019-03-27T12:40:13.740Z,8.82
2019-03-27T12:42:39.532Z,8.76
2019-03-27T12:45:05.425Z,8.75
2019-03-27T12:47:31.219Z,8.80
2019-03-27T12:49:57.009Z,8.84
2019-03-27T12:52:22.806Z,8.86
2019-03-27T12:54:48.584Z,8.89
2019-03-27T12:57:14.376Z,8.87
2019-03-27T12:59:40.164Z,8.91
2019-03-27T13:02:06.073Z,8.94
2019-03-27T13:04:31.853Z,8.86
2019-03-27T13:06:57.659Z,8.92
2019-03-27T13:09:23.429Z,8.94
2019-03-27T13:11:49.225Z,8.89
2019-03-27T13:14:15.010Z,8.95
2019-03-27T13:16:40.792Z,8.87
2019-03-27T13:19:06.587Z,8.77
2019-03-27T13:21:32.374Z,8.81
2019-03-27T13:23:58.179Z,8.70
2019-03-27T13:26:23.962Z,8.67
2019-03-27T13:28:49.754Z,8.74
2019-03-27T13:31:15.530Z,8.82
2019-03-27T13:33:41.318Z,8.89
2019-03-27T13:36:07.307Z,8.91
2019-03-27T13:38:33.107Z,8.83
2019-03-27T13:40:58.887Z,8.87
2019-03-27T13:43:24.678Z,8.79
2019-03-27T13:45:50.467Z,8.82
2019-03-27T13:48:16.268Z,8.83
2019-03-27T13:50:42.049Z,8.80
2019-03-27T13:53:07.844Z,8.74
2019-03-27T13:55:35.235Z,8.86
2019-03-27T13:58:01.230Z,8.86
2019-03-27T14:00:27.020Z,8.96
2019-03-27T14:02:52.799Z,8.89
2019-03-27T14:05:18.597Z,8.91
2019-03-27T14:07:44.370Z,8.96
2019-03-27T14:10:10.376Z,8.96
2019-03-27T14:12:36.157Z,8.93
2019-03-27T14:15:04.951Z,8.90
2019-03-27T14:17:30.736Z,8.84
2019-03-27T14:19:56.523Z,8.81
2019-03-27T14:22:22.326Z,8.74
2019-03-27T14:24:48.128Z,8.75
2019-03-27T14:27:13.903Z,8.75
2019-03-27T14:29:39.701Z,8.70
2019-03-27T14:32:05.484Z,8.79
2019-03-27T14:34:31.296Z,8.87
2019-03-27T14:36:57.113Z,8.78
2019-03-27T14:39:22.999Z,8.83
2019-03-27T14:41:48.789Z,8.67
2019-03-27T14:44:14.606Z,8.68
2019-03-27T14:46:40.382Z,8.67
2019-03-27T14:49:06.164Z,8.73
2019-03-27T14:51:31.956Z,8.69
2019-03-27T14:53:57.744Z,8.62
2019-03-27T14:56:23.565Z,8.63
2019-03-27T14:58:49.358Z,8.59
2019-03-27T15:01:15.141Z,8.52
2019-03-27T15:03:40.919Z,8.53
2019-03-27T15:06:06.726Z,8.55
2019-03-27T15:08:32.499Z,8.50
2019-03-27T15:10:58.288Z,8.48
2019-03-27T15:13:24.076Z,8.51
2019-03-27T15:15:49.879Z,8.51
2019-03-27T15:18:15.656Z,8.45
2019-03-27T15:20:41.443Z,8.52
2019-03-27T15:23:07.245Z,8.50
2019-03-27T15:25:33.033Z,8.59
2019-03-27T15:27:58.818Z,8.53
2019-03-27T15:30:24.769Z,8.59
2019-03-27T15:32:50.565Z,8.61
2019-03-27T15:35:16.372Z,8.57
2019-03-27T15:37:42.153Z,8.55
2019-03-27T15:40:08.047Z,8.56
2019-03-27T15:42:33.921Z,8.57
2019-03-27T15:44:59.827Z,8.53
2019-03-27T15:47:25.577Z,8.59
2019-03-27T15:49:51.363Z,8.64
2019-03-27T15:52:17.163Z,8.59
2019-03-27T15:54:42.951Z,8.66
2019-03-27T15:57:08.749Z,8.61
2019-03-27T15:59:34.529Z,8.61
2019-03-27T16:02:00.323Z,8.69
2019-03-27T16:04:26.105Z,8.72
2019-03-27T16:06:51.974Z,8.67
2019-03-27T16:09:18.772Z,8.61
2019-03-27T16:11:44.575Z,8.59
2019-03-27T16:14:10.447Z,8.55
2019-03-27T16:16:36.244Z,8.48
2019-03-27T16:19:02.023Z,8.53
2019-03-27T16:21:27.815Z,8.57
2019-03-27T16:24:05.897Z,8.55
2019-03-27T16:26:21.309Z,8.68
2019-03-27T16:28:47.123Z,8.55
2019-03-27T16:31:12.898Z,8.50
2019-03-27T16:33:38.713Z,8.51
2019-03-27T16:36:04.498Z,8.55
2019-03-27T16:38:30.291Z,8.48
2019-03-27T16:40:56.070Z,8.52
2019-03-27T16:43:21.870Z,8.48
2019-03-27T16:45:48.146Z,8.55
2019-03-27T16:48:13.944Z,8.54
2019-03-27T16:50:39.726Z,8.54
2019-03-27T16:53:05.518Z,8.52
2019-03-27T16:55:31.316Z,8.51
2019-03-27T16:57:57.112Z,8.51
2019-03-27T17:00:22.887Z,8.45
2019-03-27T17:02:48.686Z,8.51
2019-03-27T17:05:15.945Z,8.46
2019-03-27T17:07:41.856Z,8.52
2019-03-27T17:10:07.954Z,8.42
2019-03-27T17:12:33.741Z,8.42
2019-03-27T17:14:59.522Z,8.39
2019-03-27T17:17:25.311Z,8.41
2019-03-27T17:19:51.097Z,8.38
2019-03-27T17:22:19.679Z,8.39
2019-03-27T17:24:44.594Z,8.47
2019-03-27T17:27:10.491Z,8.55
2019-03-27T17:29:36.396Z,8.47
2019-03-27T17:32:02.192Z,8.50
2019-03-27T17:34:27.997Z,8.52
2019-03-27T17:36:53.769Z,8.55
2019-03-27T17:39:19.569Z,8.43
2019-03-27T17:41:45.355Z,8.43
2019-03-27T17:44:11.159Z,8.42
2019-03-27T17:46:36.938Z,8.45
2019-03-27T17:49:02.829Z,8.34
2019-03-27T17:51:28.620Z,8.39
2019-03-27T17:53:54.407Z,8.35
2019-03-27T17:56:20.207Z,8.39
2019-03-27T17:58:46.004Z,8.37
2019-03-27T18:01:11.788Z,8.36
2019-03-27T18:03:37.619Z,8.28
2019-03-27T18:06:03.504Z,8.31
2019-03-27T18:08:29.276Z,8.29
2019-03-27T18:10:55.078Z,8.30
2019-03-27T18:13:20.858Z,8.26
2019-03-27T18:15:46.646Z,8.26
2019-03-27T18:18:12.433Z,8.28
2019-03-27T18:20:38.247Z,8.23
2019-03-27T18:23:04.139Z,8.23
2019-03-27T18:25:29.930Z,8.19
2019-03-27T18:27:58.364Z,8.21
2019-03-27T18:30:23.393Z,8.19
2019-03-27T18:32:49.186Z,8.22
2019-03-27T18:35:14.989Z,8.20
2019-03-27T18:37:40.774Z,8.12
2019-03-27T18:40:06.907Z,8.19
2019-03-27T18:42:32.786Z,8.17
2019-03-27T18:44:58.631Z,8.10
2019-03-27T18:47:24.411Z,8.10
2019-03-27T18:49:50.402Z,8.14
2019-03-27T18:52:16.198Z,8.06
2019-03-27T18:54:41.980Z,8.08
2019-03-27T18:57:07.774Z,8.12
2019-03-27T18:59:33.556Z,8.07
2019-03-27T19:01:59.347Z,8.04
2019-03-27T19:04:25.345Z,8.04
2019-03-27T19:06:51.145Z,7.98
2019-03-27T19:09:16.918Z,8.04
2019-03-27T19:11:42.711Z,8.02
2019-03-27T19:14:08.492Z,7.94
2019-03-27T19:16:34.284Z,7.93
2019-03-27T19:19:00.062Z,7.98
2019-03-27T19:21:25.853Z,7.95
2019-03-27T19:23:53.136Z,7.99
2019-03-27T19:26:18.936Z,8.00
2019-03-27T19:28:44.716Z,7.99
2019-03-27T19:31:10.508Z,7.98
2019-03-27T19:33:36.288Z,7.97
2019-03-27T19:36:02.193Z,7.94
2019-03-27T19:38:27.997Z,7.98
2019-03-27T19:40:53.744Z,7.99
2019-03-27T19:43:19.539Z,7.90
2019-03-27T19:45:45.420Z,7.97
2019-03-27T19:48:11.211Z,7.93
2019-03-27T19:50:37.008Z,7.89
2019-03-27T19:53:02.901Z,7.89
2019-03-27T19:55:28.680Z,7.88
2019-03-27T19:57:54.467Z,7.90
2019-03-27T20:00:21.564Z,7.91
2019-03-27T20:02:47.378Z,7.91
2019-03-27T20:05:13.151Z,7.84
2019-03-27T20:07:38.944Z,7.92
2019-03-27T20:10:05.724Z,7.90
2019-03-27T20:12:31.521Z,7.88
2019-03-27T20:15:10.849Z,7.85
2019-03-27T20:17:25.594Z,7.85
2019-03-27T20:19:51.373Z,7.85
2019-03-27T20:22:17.178Z,7.83
2019-03-27T20:24:42.971Z,7.86
2019-03-27T20:27:09.269Z,7.86
2019-03-27T20:29:35.131Z,7.87
2019-03-27T20:32:01.237Z,7.82
2019-03-27T20:34:27.326Z,7.87
2019-03-27T20:36:53.322Z,7.82
2019-03-27T20:39:19.128Z,7.83
2019-03-27T20:41:45.087Z,7.77
2019-03-27T20:44:11.080Z,7.83
2019-03-27T20:46:37.239Z,7.79
2019-03-27T20:49:03.356Z,7.86
2019-03-27T20:51:29.141Z,7.82
2019-03-27T20:53:54.934Z,7.80
2019-03-27T20:56:20.944Z,7.83
2019-03-27T20:58:46.933Z,7.86
2019-03-27T21:01:12.844Z,7.82
2019-03-27T21:03:40.226Z,7.82
2019-03-27T21:06:06.006Z,7.81
2019-03-27T21:08:31.882Z,7.81
2019-03-27T21:10:57.659Z,7.81
2019-03-27T21:13:23.445Z,7.82
2019-03-27T21:15:49.232Z,7.85
2019-03-27T21:18:15.013Z,7.85
2019-03-27T21:20:40.808Z,7.82
2019-03-27T21:23:06.652Z,7.83
2019-03-27T21:25:32.448Z,7.85
2019-03-27T21:27:58.231Z,7.83
2019-03-27T21:30:24.032Z,7.80
2019-03-27T21:32:49.823Z,7.82
2019-03-27T21:35:15.612Z,7.83
2019-03-27T21:37:41.396Z,7.81
2019-03-27T21:40:07.493Z,7.78
2019-03-27T21:42:33.270Z,7.87
2019-03-27T21:44:59.073Z,7.83
2019-03-27T21:47:24.899Z,7.80
2019-03-27T21:49:50.764Z,7.79
2019-03-27T21:52:16.607Z,7.83
2019-03-27T21:54:42.531Z,7.77
2019-03-27T21:57:08.560Z,7.85
2019-03-27T21:59:34.686Z,7.87
2019-03-27T22:02:02.740Z,7.88
2019-03-27T22:04:28.538Z,7.91
2019-03-27T22:06:54.389Z,7.86
2019-03-27T22:09:20.583Z,7.90
2019-03-27T22:11:46.367Z,7.87
2019-03-27T22:14:12.160Z,7.81
2019-03-27T22:16:37.943Z,7.80
2019-03-27T22:19:04.017Z,7.76
2019-03-27T22:21:30.057Z,7.80
2019-03-27T22:23:55.867Z,7.83
2019-03-27T22:26:21.895Z,7.89
2019-03-27T22:28:50.756Z,7.80
2019-03-27T22:31:16.679Z,7.70
2019-03-27T22:33:42.457Z,7.78
2019-03-27T22:36:08.254Z,7.78
2019-03-27T22:38:34.675Z,7.76
2019-03-27T22:41:00.794Z,7.80
2019-03-27T22:43:28.026Z,7.76
2019-03-27T22:45:53.958Z,7.75
2019-03-27T22:48:19.891Z,7.75
2019-03-27T22:50:45.655Z,7.74
2019-03-27T22:53:11.446Z,7.73
2019-03-27T22:55:49.000Z,7.70
2019-03-27T22:58:04.978Z,7.74
2019-03-27T23:00:44.695Z,7.73
2019-03-27T23:03:18.046Z,7.77
2019-03-27T23:05:38.290Z,7.79
2019-03-27T23:08:04.065Z,7.78
2019-03-27T23:10:29.854Z,7.75
2019-03-27T23:12:55.707Z,7.75
2019-03-27T23:15:21.481Z,7.75
2019-03-27T23:17:47.280Z,7.74
2019-03-27T23:20:13.165Z,7.79
2019-03-27T23:22:38.971Z,7.82
2019-03-27T23:25:05.062Z,7.78
2019-03-27T23:27:30.851Z,7.82
2019-03-27T23:29:56.631Z,7.83
2019-03-27T23:32:22.419Z,7.86
2019-03-27T23:34:48.206Z,7.91
2019-03-27T23:37:14.054Z,7.83
2019-03-27T23:39:39.830Z,7.81
2019-03-27T23:42:05.619Z,7.81
2019-03-27T23:44:31.403Z,7.77
2019-03-27T23:46:57.208Z,7.76
2019-03-27T23:49:22.986Z,7.75
2019-03-27T23:51:48.781Z,7.81
2019-03-27T23:54:14.554Z,7.81
2019-03-27T23:56:40.379Z,7.80
2019-03-27T23:59:06.155Z,7.82
